North Ogden, Utah
Current Conditions -  °F | °C
As of 9:53 PM on Monday 20 Oct 2014 (Local Time) from KOGD Reporting Station
Clear Clear  
Wind Chill: 61°   Ceiling: Unl
Heat Index: 61°   Visibility: 10mi
Dew Point: 37°   Wind: 10mph
Humidity: 41%   Direction: 170°S
Pressure: 29.9"   Gusts: NA
Location:  41.3178°N, 111.954°W
Report Text: KOGD 210353Z 17009KT 10SM CLR 16/03 A2990 RMK AO2 SLP088 T01610028
Loading
Personal Weather Stations






























Interactive Weather Map
Tropical Storm Tracking
New forecast layout! Learn more

10-Day Weather Forecast

Advertisements
Track Severe Weather on mobile